Butternuts, New York
Current Conditions -  °F | °C
As of 7:53 PM on Tuesday 21 Oct 2014 (Local Time) from KBGM Reporting Station
Overcast Overcast  
Wind Chill: 10°   Ceiling: 3200
Heat Index: 10°   Visibility: 10mi
Dew Point:   Wind: 5mph
Humidity: 86%   Direction: 30°NNE
Pressure: 29.92"   Gusts: NA
Location:  42.4446°N, 75.3595°W
Report Text: KBGM 212353Z 03004KT 10SM FEW026 BKN032 OVC050 10/08 A2992 RMK AO2 SLP135 60000 T01000078 10122 20100 51012
Loading
Personal Weather Stations






























Interactive Weather Map
Tropical Storm Tracking
New forecast layout! Learn more

10-Day Weather Forecast

Advertisements
Track Severe Weather on mobile